In Rescue
 
Open Full Screen Window  High Contrast Mode
Wind Gusting 00 knots
10
May 20, 2019 2:20 PM EDT
Weather Information
Wind Direction
  290 °
Wind Speed
  10 kt (12 mph)
Wind Gust
  00 kt (0 mph)
Altimeter
30.02 in
Visibility
10 SM
Temperature
14° C
57° F
Dewpoint
09° C
48° F
Humidity
72%
1hr Rain Fall
00.00 in.
24hr Rain Fall
00.36 in.
Sky Condition
Overcast @ 3,400 ft
Broken @ 2,700 ft
MVFR

METAR KEDJ 201820Z AUTO 29010KT 10SM BKN027 OVC034 14/09 A3002 RMK AO1

FAA Disclaimer: The data displayed is for advisory purposes only and is not to be used for flight planning or operations.